OITM  Sahand Airport

Add Bookmark

Maragheh, Iran

Status IATA
Operational ACP
Latitude Longitude
37° 20' 52" N 46° 7' 40" E
37.348000 46.127899
Local (DST + 5) UTC (GMT + 4)
Aug 29, 2014 05:40 Aug 29, 2014 01:10
Sunrise-Sunset Local UTC
Begin Civil Twilight 06:25 01:55
Sunrise 06:52 02:22
Sunset 08:00 15:30
End Civil Twilight 08:27 15:57

Current Weather

METAR Observed VFR
OITM 290000Z 07010KT CAVOK 23/05 Q1014 Fri, Aug 29, 2014 @ 00:00 UTC
(1 Hour, 10 Minutes ago)
Visual Flight Rules
Wind Visibility Clouds Conditions
070° at 10 knots (19 kph) 10 km or more
  • Clear skies
  • No significant weather
Temperatures Readings Precipitation
Current Temp 23°C (73°F)
Dewpoint 5°C (41°F)
Humidity 31%
Altimeter 29.94"Hg
Sea Level Pressure 1014mb
Field Elevation 4396.33'
None Recorded

Additional weather within a 92.6km radius of OITM

Map ICAO Location
OITT 87.8km N (006°)

24 Hour Weather History

Loading
-

24 Hour Weather Graphs

Loading
-

CheckWX.com is intended as a tool to help pilots better visualize weather data. It is not intended as a substitute for an official weather briefing obtained from a Flight Service Station. CheckWX.com does not meet the FAA requirements for an official pre-flight weather briefing. Therefore, it's important that pilots still call and obtain an official FSS pre-flight weather briefing.